Lethbridge County Airport
CYQL : rendu visible

Aérodrome :











RETROUVEZ-NOUS SUR...

 
LOGIN :

S'inscrire | Disclaimer

   EN    FR    IT 

 









Légende :    VFR   VFR Marginal   IFR   IFR Intensif   IFR Très Intensif
Visi : 
Plafond : 
>= 8 km
>= 3000ft
5 à 8 km
1000 à 3000 ft
1500m à 5 km
500 à 1000 ft
800 à 1500m
200 à 500 ft
< 800m
< 200 ft
Symboles :   Orages  Brouillard  Fortes neiges  Fortes précipitations  Vent > 20 kt






- Altitude de l'aérodrome : 3047 ft
- Code IATA : YQL


CYQL - Lethbridge County

DERNIER METAR :
  • 190400Z 10004KT 25SM FEW080 OVC130 M19/M24 A3031 RMK AC1AC7 SLP372

METARs EXPIRÉS :
  • 190300Z 10005KT 25SM FEW080 OVC120 M19/M24 A3032 RMK AC1AC7 SLP379
  • 190200Z 08006KT 25SM FEW080 OVC120 M19/M25 A3032 RMK AC1AC7 SLP378

TAF TAF CYQL
Valide du 19 à 00h jusqu'au 19 à 12h UTC


182338Z 1900/1912 10006KT P6SM SCT080 BKN150 OVC250
FM190600 VRB03KT P6SM SKC RMK NXT FCST BY 190600Z



MET'MAP, la Météo Aéronautique d'un coup d'oeil ! - Copyright ORBIFLY Décembre 2007 - Disclaimer

ORBIFLY MET'MAP TEAM :

Programmation & Développement : Alexandra Zaïnal
Sur une idée originale de : Baudouin d'Aumeries
Assistance à la programmation : Marc-Olivier Méhu
Soutien technique & logistique : Manuel Goepfert

Contact : metmap@orbifly.com




SOURCES & CREDITS :

   NOAA       Earth
Advisory